createdAt,value
2022-09-20T00:03:48.502Z,23.07
2022-09-20T00:08:47.801Z,23.02
2022-09-20T00:13:49.151Z,23.04
2022-09-20T00:18:46.455Z,22.62
2022-09-20T00:23:46.758Z,22.39
2022-09-20T00:28:45.101Z,22.17
2022-09-20T00:33:45.392Z,21.98
2022-09-20T00:38:43.723Z,22.40
2022-09-20T00:43:43.038Z,21.62
2022-09-20T00:48:42.410Z,21.47
2022-09-20T00:53:41.510Z,21.34
2022-09-20T00:58:41.808Z,21.29
2022-09-20T01:03:40.155Z,21.12
2022-09-20T01:08:39.493Z,20.94
2022-09-20T01:13:38.809Z,20.87
2022-09-20T01:18:37.765Z,20.94
2022-09-20T01:23:40.068Z,20.77
2022-09-20T01:28:36.372Z,20.85
2022-09-20T01:33:35.696Z,20.64
2022-09-20T01:38:36.011Z,20.55
2022-09-20T01:43:34.335Z,20.51
2022-09-20T01:48:33.710Z,20.61
2022-09-20T01:53:33.865Z,20.61
2022-09-20T01:58:31.966Z,20.38
2022-09-20T02:03:32.271Z,20.41
2022-09-20T02:08:31.560Z,21.09
2022-09-20T02:13:29.890Z,21.29
2022-09-20T02:18:29.029Z,21.38
2022-09-20T02:23:28.159Z,21.40
2022-09-20T02:28:26.459Z,21.06
2022-09-20T02:33:28.777Z,20.91
2022-09-20T02:38:26.106Z,20.87
2022-09-20T02:43:29.218Z,21.01
2022-09-20T02:48:25.501Z,20.88
2022-09-20T02:53:23.784Z,20.84
2022-09-20T02:58:23.139Z,20.82
2022-09-20T03:03:21.279Z,20.67
2022-09-20T03:08:21.429Z,20.73
2022-09-20T03:13:20.655Z,20.55
2022-09-20T03:18:20.784Z,20.41
2022-09-20T03:23:19.105Z,20.35
2022-09-20T03:28:18.420Z,20.26
2022-09-20T03:33:18.748Z,19.87
2022-09-20T03:38:17.029Z,19.58
2022-09-20T03:43:17.322Z,19.95
2022-09-20T03:48:15.696Z,20.35
2022-09-20T03:53:15.832Z,20.61
2022-09-20T03:58:16.112Z,20.77
2022-09-20T04:03:14.398Z,20.35
2022-09-20T04:08:13.746Z,20.29
2022-09-20T04:13:13.074Z,20.31
2022-09-20T04:18:13.207Z,20.38
2022-09-20T04:23:10.519Z,20.35
2022-09-20T04:28:09.823Z,20.21
2022-09-20T04:33:09.132Z,20.20
2022-09-20T04:38:09.438Z,20.11
2022-09-20T04:43:07.768Z,19.98
2022-09-20T04:48:08.056Z,19.96
2022-09-20T04:53:06.355Z,19.88
2022-09-20T04:58:05.721Z,19.48
2022-09-20T05:03:04.839Z,19.11
2022-09-20T05:08:03.144Z,19.62
2022-09-20T05:13:03.476Z,19.86
2022-09-20T05:18:02.776Z,20.16
2022-09-20T05:23:02.088Z,20.38
2022-09-20T05:28:01.418Z,20.23
2022-09-20T05:33:02.554Z,20.03
2022-09-20T05:37:59.850Z,19.91
2022-09-20T05:42:59.176Z,19.94
2022-09-20T05:47:59.339Z,19.91
2022-09-20T05:52:57.509Z,19.87
2022-09-20T05:57:57.662Z,19.87
2022-09-20T06:02:55.808Z,19.88
2022-09-20T06:07:55.168Z,19.81
2022-09-20T06:12:55.337Z,19.88
2022-09-20T06:17:53.497Z,19.59
2022-09-20T06:22:53.650Z,19.22
2022-09-20T06:27:52.958Z,19.69
2022-09-20T06:32:51.233Z,20.02
2022-09-20T06:37:51.581Z,20.42
2022-09-20T06:42:49.740Z,20.72
2022-09-20T06:47:50.023Z,21.01
2022-09-20T06:52:49.397Z,20.94
2022-09-20T06:57:46.555Z,20.38
2022-09-20T07:02:47.753Z,20.47
2022-09-20T07:07:45.864Z,20.42
2022-09-20T07:12:45.182Z,20.48
2022-09-20T07:17:45.337Z,20.41
2022-09-20T07:22:43.663Z,20.62
2022-09-20T07:27:43.967Z,20.66
2022-09-20T07:32:43.266Z,20.55
2022-09-20T07:37:41.573Z,20.38
2022-09-20T07:42:41.875Z,20.10
2022-09-20T07:47:41.186Z,20.54
2022-09-20T07:52:40.503Z,20.89
2022-09-20T07:57:38.890Z,21.75
2022-09-20T08:02:39.110Z,22.62
2022-09-20T08:07:37.253Z,22.80
2022-09-20T08:17:36.777Z,23.28
2022-09-20T08:22:34.869Z,23.10
2022-09-20T08:27:35.254Z,23.09
2022-09-20T08:32:34.344Z,23.04
2022-09-20T08:37:33.652Z,22.88
2022-09-20T08:42:39.048Z,22.64
2022-09-20T08:47:31.336Z,22.42
2022-09-20T08:52:35.904Z,22.00
2022-09-20T08:57:29.682Z,22.25
2022-09-20T09:02:30.052Z,22.27
2022-09-20T09:07:32.177Z,22.36
2022-09-20T09:12:27.511Z,22.68
2022-09-20T09:17:27.919Z,23.19
2022-09-20T09:22:25.904Z,24.08
2022-09-20T09:27:25.288Z,24.09
2022-09-20T09:32:26.409Z,24.27
2022-09-20T09:37:28.463Z,24.21
2022-09-20T09:42:23.973Z,24.03
2022-09-20T09:47:23.283Z,23.75
2022-09-20T09:52:22.738Z,23.85
2022-09-20T09:57:22.877Z,23.73
2022-09-20T10:02:19.098Z,23.55
2022-09-20T10:07:19.290Z,23.54
2022-09-20T10:12:19.462Z,23.53
2022-09-20T10:17:17.572Z,23.51
2022-09-20T10:22:17.907Z,23.31
2022-09-20T10:27:16.281Z,23.04
2022-09-20T10:32:15.594Z,22.98
2022-09-20T10:37:14.757Z,22.83
2022-09-20T10:42:13.939Z,22.73
2022-09-20T10:47:13.195Z,22.62
2022-09-20T10:52:14.410Z,22.60
2022-09-20T10:57:13.688Z,22.70
2022-09-20T11:02:09.937Z,22.79
2022-09-20T11:07:10.064Z,23.02
2022-09-20T11:12:10.398Z,23.25
2022-09-20T11:17:08.583Z,23.38
2022-09-20T11:22:07.737Z,23.47
2022-09-20T11:27:06.933Z,23.43
2022-09-20T11:32:06.143Z,23.43
2022-09-20T11:37:06.315Z,23.38
2022-09-20T11:42:03.549Z,23.25
2022-09-20T11:47:04.701Z,22.97
2022-09-20T11:52:02.834Z,23.00
2022-09-20T11:57:02.170Z,23.16
2022-09-20T12:02:01.575Z,23.20
2022-09-20T12:07:04.567Z,23.09
2022-09-20T12:12:00.900Z,23.17
2022-09-20T12:17:00.195Z,23.25
2022-09-20T12:21:59.583Z,23.48
2022-09-20T12:26:56.708Z,23.85
2022-09-20T12:31:57.835Z,24.13
2022-09-20T12:36:56.151Z,24.22
2022-09-20T12:41:56.497Z,24.22
2022-09-20T12:46:54.654Z,24.31
2022-09-20T12:51:53.796Z,24.37
2022-09-20T12:56:52.988Z,24.43
2022-09-20T13:01:52.274Z,24.31
2022-09-20T13:06:51.371Z,24.16
2022-09-20T13:11:50.709Z,23.94
2022-09-20T13:16:51.078Z,23.58
2022-09-20T13:21:49.220Z,23.38
2022-09-20T13:26:49.489Z,23.17
2022-09-20T13:31:46.680Z,23.12
2022-09-20T13:36:46.878Z,22.92
2022-09-20T13:41:45.108Z,22.62
2022-09-20T13:46:45.274Z,22.68
2022-09-20T13:51:44.419Z,22.95
2022-09-20T13:56:43.565Z,23.10
2022-09-20T14:01:42.905Z,23.54
2022-09-20T14:06:42.016Z,23.85
2022-09-20T14:11:41.397Z,24.24
2022-09-20T14:16:41.531Z,24.18
2022-09-20T14:21:38.643Z,24.09
2022-09-20T14:26:39.982Z,24.12
2022-09-20T14:31:38.358Z,24.13
2022-09-20T14:36:37.548Z,23.79
2022-09-20T14:41:36.774Z,23.27
2022-09-20T14:46:35.952Z,23.38
2022-09-20T14:51:35.085Z,23.16
2022-09-20T14:56:34.412Z,22.94
2022-09-20T15:01:33.530Z,22.72
2022-09-20T15:06:32.911Z,22.47
2022-09-20T15:11:31.033Z,22.36
2022-09-20T15:16:31.444Z,22.12
2022-09-20T15:21:30.600Z,21.96
2022-09-20T15:26:29.715Z,22.00
2022-09-20T15:31:29.118Z,22.25
2022-09-20T15:36:29.320Z,22.33
2022-09-20T15:41:31.091Z,22.03
2022-09-20T18:09:12.947Z,21.29
2022-09-20T18:14:12.037Z,21.61
2022-09-20T18:19:11.296Z,21.96
2022-09-20T18:24:11.534Z,22.09
2022-09-20T18:29:10.806Z,22.25
2022-09-20T18:34:11.115Z,22.12
2022-09-20T18:39:08.401Z,22.02
2022-09-20T18:44:07.715Z,21.96
2022-09-20T18:49:07.000Z,22.61
2022-09-20T18:54:07.272Z,22.51
2022-09-20T18:59:05.646Z,22.85
2022-09-20T19:04:05.800Z,22.83
2022-09-20T19:09:05.058Z,23.39
2022-09-20T19:14:03.167Z,24.08
2022-09-20T19:19:02.472Z,23.39
2022-09-20T19:24:03.416Z,23.02
2022-09-20T19:29:01.156Z,22.86
2022-09-20T19:34:01.243Z,22.79
2022-09-20T19:38:59.590Z,23.00
2022-09-20T19:43:58.697Z,23.53
2022-09-20T19:48:57.991Z,23.16
2022-09-20T19:53:58.358Z,23.20
2022-09-20T19:58:58.567Z,23.50
2022-09-20T20:03:55.921Z,23.60
2022-09-20T20:08:55.010Z,24.10
2022-09-20T20:13:55.310Z,23.65
2022-09-20T20:18:53.690Z,23.17
2022-09-20T20:23:53.795Z,23.27
2022-09-20T20:28:52.067Z,23.23
2022-09-20T20:33:53.336Z,23.33
2022-09-20T20:38:50.614Z,23.57
2022-09-20T20:43:50.893Z,23.40
2022-09-20T20:48:50.186Z,22.97
2022-09-20T20:53:48.513Z,23.28
2022-09-20T20:58:48.782Z,23.15
2022-09-20T21:03:47.077Z,22.64
2022-09-20T21:08:49.573Z,23.27
2022-09-20T21:13:45.610Z,23.07
2022-09-20T21:18:46.955Z,23.16
2022-09-20T21:23:45.224Z,23.20
2022-09-20T21:28:43.471Z,20.87
2022-09-20T21:33:42.768Z,19.13
2022-09-20T21:38:42.139Z,18.81
2022-09-20T21:43:41.233Z,18.23
2022-09-20T21:48:40.566Z,18.07
2022-09-20T21:53:39.900Z,17.49
2022-09-20T21:58:41.225Z,17.25
2022-09-20T22:03:38.501Z,17.79
2022-09-20T22:08:37.787Z,18.27
2022-09-20T22:13:37.081Z,18.90
2022-09-20T22:18:36.389Z,17.81
2022-09-20T22:23:35.692Z,18.47
2022-09-20T22:28:35.048Z,18.25
2022-09-20T22:33:35.191Z,18.32
2022-09-20T22:38:33.490Z,18.78
2022-09-20T22:43:32.798Z,18.60
2022-09-20T22:48:33.109Z,19.22
2022-09-20T22:53:32.380Z,19.28
2022-09-20T22:58:32.795Z,22.58
2022-09-20T23:03:30.880Z,23.43
2022-09-20T23:08:29.297Z,23.51
2022-09-20T23:13:28.434Z,23.69
2022-09-20T23:18:28.585Z,23.83
2022-09-20T23:23:27.696Z,23.88
2022-09-20T23:28:25.074Z,23.73
2022-09-20T23:33:25.238Z,23.39
2022-09-20T23:38:24.532Z,23.07
2022-09-20T23:43:24.872Z,22.86
2022-09-20T23:48:23.059Z,22.51
2022-09-20T23:53:22.177Z,22.35
2022-09-20T23:58:21.338Z,22.22
